sensor_id;sensor_type;location;lat;lon;timestamp;P1;durP1;ratioP1;P2;durP2;ratioP2
76039;SDS011;64736;50.462;4.850;2024-01-16T00:01:19;7.20;;;3.80;;
76039;SDS011;64736;50.462;4.850;2024-01-16T00:03:45;7.18;;;4.18;;
76039;SDS011;64736;50.462;4.850;2024-01-16T00:06:11;7.07;;;4.00;;
76039;SDS011;64736;50.462;4.850;2024-01-16T00:08:37;9.68;;;4.45;;
76039;SDS011;64736;50.462;4.850;2024-01-16T00:11:02;10.60;;;4.22;;
76039;SDS011;64736;50.462;4.850;2024-01-16T00:13:28;9.32;;;3.85;;
76039;SDS011;64736;50.462;4.850;2024-01-16T00:15:54;8.85;;;3.38;;
76039;SDS011;64736;50.462;4.850;2024-01-16T00:18:22;8.45;;;4.07;;
76039;SDS011;64736;50.462;4.850;2024-01-16T00:20:48;6.72;;;2.75;;
76039;SDS011;64736;50.462;4.850;2024-01-16T00:23:14;9.23;;;3.28;;
76039;SDS011;64736;50.462;4.850;2024-01-16T00:25:40;10.40;;;3.45;;
76039;SDS011;64736;50.462;4.850;2024-01-16T00:28:06;7.75;;;4.10;;
76039;SDS011;64736;50.462;4.850;2024-01-16T00:30:32;9.00;;;4.35;;
76039;SDS011;64736;50.462;4.850;2024-01-16T00:32:59;12.68;;;6.82;;
76039;SDS011;64736;50.462;4.850;2024-01-16T00:35:24;13.35;;;8.25;;
76039;SDS011;64736;50.462;4.850;2024-01-16T00:37:50;11.45;;;6.47;;
76039;SDS011;64736;50.462;4.850;2024-01-16T00:40:16;17.25;;;9.27;;
76039;SDS011;64736;50.462;4.850;2024-01-16T00:42:42;21.63;;;6.78;;
76039;SDS011;64736;50.462;4.850;2024-01-16T00:45:08;15.90;;;8.38;;
76039;SDS011;64736;50.462;4.850;2024-01-16T00:47:34;14.43;;;7.45;;
76039;SDS011;64736;50.462;4.850;2024-01-16T00:49:59;14.00;;;7.85;;
76039;SDS011;64736;50.462;4.850;2024-01-16T00:52:28;11.00;;;6.60;;
76039;SDS011;64736;50.462;4.850;2024-01-16T00:54:54;15.18;;;7.55;;
76039;SDS011;64736;50.462;4.850;2024-01-16T00:57:19;13.73;;;7.68;;
76039;SDS011;64736;50.462;4.850;2024-01-16T00:59:46;9.75;;;5.68;;
76039;SDS011;64736;50.462;4.850;2024-01-16T01:02:12;13.95;;;5.95;;
76039;SDS011;64736;50.462;4.850;2024-01-16T01:04:38;12.55;;;6.65;;
76039;SDS011;64736;50.462;4.850;2024-01-16T01:07:03;11.18;;;6.13;;
76039;SDS011;64736;50.462;4.850;2024-01-16T01:09:32;10.13;;;5.10;;
76039;SDS011;64736;50.462;4.850;2024-01-16T01:11:58;9.57;;;4.70;;
76039;SDS011;64736;50.462;4.850;2024-01-16T01:14:23;12.18;;;5.22;;
76039;SDS011;64736;50.462;4.850;2024-01-16T01:16:51;8.23;;;4.53;;
76039;SDS011;64736;50.462;4.850;2024-01-16T01:19:16;8.30;;;3.90;;
76039;SDS011;64736;50.462;4.850;2024-01-16T01:21:42;10.25;;;4.45;;
76039;SDS011;64736;50.462;4.850;2024-01-16T01:24:08;7.43;;;4.18;;
76039;SDS011;64736;50.462;4.850;2024-01-16T01:26:34;8.65;;;3.75;;
76039;SDS011;64736;50.462;4.850;2024-01-16T01:29:00;6.18;;;3.25;;
76039;SDS011;64736;50.462;4.850;2024-01-16T01:31:27;8.82;;;3.90;;
76039;SDS011;64736;50.462;4.850;2024-01-16T01:33:52;9.48;;;4.53;;
76039;SDS011;64736;50.462;4.850;2024-01-16T01:36:18;8.48;;;3.67;;
76039;SDS011;64736;50.462;4.850;2024-01-16T01:38:44;7.95;;;4.05;;
76039;SDS011;64736;50.462;4.850;2024-01-16T01:41:09;11.10;;;4.30;;
76039;SDS011;64736;50.462;4.850;2024-01-16T01:43:37;6.82;;;2.97;;
76039;SDS011;64736;50.462;4.850;2024-01-16T01:48:31;5.35;;;3.08;;
76039;SDS011;64736;50.462;4.850;2024-01-16T01:50:59;7.57;;;3.05;;
76039;SDS011;64736;50.462;4.850;2024-01-16T01:53:25;10.90;;;3.38;;
76039;SDS011;64736;50.462;4.850;2024-01-16T01:55:51;7.60;;;3.03;;
76039;SDS011;64736;50.462;4.850;2024-01-16T01:58:17;8.23;;;3.33;;
76039;SDS011;64736;50.462;4.850;2024-01-16T02:00:43;7.22;;;3.38;;
76039;SDS011;64736;50.462;4.850;2024-01-16T02:03:09;9.95;;;4.03;;
76039;SDS011;64736;50.462;4.850;2024-01-16T02:05:35;6.10;;;3.20;;
76039;SDS011;64736;50.462;4.850;2024-01-16T02:08:04;6.95;;;3.22;;
76039;SDS011;64736;50.462;4.850;2024-01-16T02:10:30;6.47;;;3.70;;
76039;SDS011;64736;50.462;4.850;2024-01-16T02:12:57;7.75;;;3.40;;
76039;SDS011;64736;50.462;4.850;2024-01-16T02:15:23;7.03;;;2.97;;
76039;SDS011;64736;50.462;4.850;2024-01-16T02:17:49;7.93;;;3.65;;
76039;SDS011;64736;50.462;4.850;2024-01-16T02:20:16;6.40;;;3.30;;
76039;SDS011;64736;50.462;4.850;2024-01-16T02:22:42;8.75;;;3.40;;
76039;SDS011;64736;50.462;4.850;2024-01-16T02:25:16;10.02;;;3.85;;
76039;SDS011;64736;50.462;4.850;2024-01-16T02:27:42;5.97;;;3.20;;
76039;SDS011;64736;50.462;4.850;2024-01-16T02:30:07;6.95;;;2.85;;
76039;SDS011;64736;50.462;4.850;2024-01-16T02:32:33;8.45;;;3.28;;
76039;SDS011;64736;50.462;4.850;2024-01-16T02:34:59;9.60;;;3.13;;
76039;SDS011;64736;50.462;4.850;2024-01-16T02:37:24;7.93;;;2.92;;
76039;SDS011;64736;50.462;4.850;2024-01-16T02:39:50;8.98;;;2.92;;
76039;SDS011;64736;50.462;4.850;2024-01-16T02:42:16;6.25;;;3.40;;
76039;SDS011;64736;50.462;4.850;2024-01-16T02:44:42;7.93;;;3.25;;
76039;SDS011;64736;50.462;4.850;2024-01-16T02:47:07;9.32;;;3.42;;
76039;SDS011;64736;50.462;4.850;2024-01-16T02:49:33;5.80;;;2.88;;
76039;SDS011;64736;50.462;4.850;2024-01-16T02:51:59;5.32;;;2.67;;
76039;SDS011;64736;50.462;4.850;2024-01-16T02:54:24;8.07;;;3.72;;
76039;SDS011;64736;50.462;4.850;2024-01-16T02:56:50;5.68;;;3.50;;
76039;SDS011;64736;50.462;4.850;2024-01-16T02:59:16;6.22;;;3.38;;
76039;SDS011;64736;50.462;4.850;2024-01-16T03:01:42;8.07;;;3.03;;
76039;SDS011;64736;50.462;4.850;2024-01-16T03:04:08;7.93;;;3.38;;
76039;SDS011;64736;50.462;4.850;2024-01-16T03:06:34;7.75;;;3.10;;
76039;SDS011;64736;50.462;4.850;2024-01-16T03:08:59;12.23;;;2.95;;
76039;SDS011;64736;50.462;4.850;2024-01-16T03:11:25;8.02;;;3.63;;
76039;SDS011;64736;50.462;4.850;2024-01-16T03:13:51;7.57;;;4.00;;
76039;SDS011;64736;50.462;4.850;2024-01-16T03:16:18;6.95;;;3.00;;
76039;SDS011;64736;50.462;4.850;2024-01-16T03:18:44;5.45;;;3.03;;
76039;SDS011;64736;50.462;4.850;2024-01-16T03:21:10;6.13;;;3.10;;
76039;SDS011;64736;50.462;4.850;2024-01-16T03:23:36;6.18;;;2.70;;
76039;SDS011;64736;50.462;4.850;2024-01-16T03:26:01;7.93;;;3.03;;
76039;SDS011;64736;50.462;4.850;2024-01-16T03:28:28;6.20;;;2.92;;
76039;SDS011;64736;50.462;4.850;2024-01-16T03:30:54;8.43;;;3.90;;
76039;SDS011;64736;50.462;4.850;2024-01-16T03:33:20;9.50;;;3.60;;
76039;SDS011;64736;50.462;4.850;2024-01-16T03:35:45;6.55;;;3.65;;
76039;SDS011;64736;50.462;4.850;2024-01-16T03:38:12;7.30;;;3.13;;
76039;SDS011;64736;50.462;4.850;2024-01-16T03:40:38;10.32;;;3.72;;
76039;SDS011;64736;50.462;4.850;2024-01-16T03:43:05;8.57;;;3.53;;
76039;SDS011;64736;50.462;4.850;2024-01-16T03:45:31;6.25;;;3.20;;
76039;SDS011;64736;50.462;4.850;2024-01-16T03:47:58;7.15;;;3.60;;
76039;SDS011;64736;50.462;4.850;2024-01-16T03:50:24;7.38;;;3.30;;
76039;SDS011;64736;50.462;4.850;2024-01-16T03:52:49;9.00;;;3.92;;
76039;SDS011;64736;50.462;4.850;2024-01-16T03:55:15;7.07;;;3.25;;
76039;SDS011;64736;50.462;4.850;2024-01-16T03:57:40;12.48;;;3.67;;
76039;SDS011;64736;50.462;4.850;2024-01-16T04:00:07;5.95;;;3.00;;
76039;SDS011;64736;50.462;4.850;2024-01-16T04:02:38;9.80;;;3.58;;
76039;SDS011;64736;50.462;4.850;2024-01-16T04:05:04;6.15;;;2.70;;
76039;SDS011;64736;50.462;4.850;2024-01-16T04:07:30;7.38;;;3.30;;
76039;SDS011;64736;50.462;4.850;2024-01-16T04:09:56;10.10;;;3.28;;
76039;SDS011;64736;50.462;4.850;2024-01-16T04:12:22;7.28;;;2.92;;
76039;SDS011;64736;50.462;4.850;2024-01-16T04:14:48;5.05;;;2.70;;
76039;SDS011;64736;50.462;4.850;2024-01-16T04:17:13;6.75;;;2.80;;
76039;SDS011;64736;50.462;4.850;2024-01-16T04:19:39;9.63;;;3.90;;
76039;SDS011;64736;50.462;4.850;2024-01-16T04:22:05;5.90;;;3.05;;
76039;SDS011;64736;50.462;4.850;2024-01-16T04:24:30;5.72;;;3.15;;
76039;SDS011;64736;50.462;4.850;2024-01-16T04:26:56;6.57;;;3.00;;
76039;SDS011;64736;50.462;4.850;2024-01-16T04:29:22;6.00;;;3.22;;
76039;SDS011;64736;50.462;4.850;2024-01-16T04:31:48;7.38;;;3.20;;
76039;SDS011;64736;50.462;4.850;2024-01-16T04:34:13;9.32;;;3.38;;
76039;SDS011;64736;50.462;4.850;2024-01-16T04:36:39;4.70;;;2.67;;
76039;SDS011;64736;50.462;4.850;2024-01-16T04:39:05;7.60;;;2.90;;
76039;SDS011;64736;50.462;4.850;2024-01-16T04:41:30;6.80;;;3.25;;
76039;SDS011;64736;50.462;4.850;2024-01-16T04:43:56;6.15;;;3.30;;
76039;SDS011;64736;50.462;4.850;2024-01-16T04:46:22;7.60;;;2.90;;
76039;SDS011;64736;50.462;4.850;2024-01-16T04:48:47;6.60;;;2.33;;
76039;SDS011;64736;50.462;4.850;2024-01-16T04:51:13;6.43;;;2.90;;
76039;SDS011;64736;50.462;4.850;2024-01-16T04:53:41;5.45;;;3.00;;
76039;SDS011;64736;50.462;4.850;2024-01-16T04:56:07;7.22;;;3.15;;
76039;SDS011;64736;50.462;4.850;2024-01-16T04:58:33;7.13;;;3.47;;
76039;SDS011;64736;50.462;4.850;2024-01-16T05:00:59;5.97;;;2.72;;
76039;SDS011;64736;50.462;4.850;2024-01-16T05:03:25;5.65;;;2.97;;
76039;SDS011;64736;50.462;4.850;2024-01-16T05:05:50;5.10;;;2.63;;
76039;SDS011;64736;50.462;4.850;2024-01-16T05:08:16;7.38;;;2.70;;
76039;SDS011;64736;50.462;4.850;2024-01-16T05:10:43;6.47;;;3.08;;
76039;SDS011;64736;50.462;4.850;2024-01-16T05:13:08;5.07;;;2.63;;
76039;SDS011;64736;50.462;4.850;2024-01-16T05:15:37;6.97;;;3.25;;
76039;SDS011;64736;50.462;4.850;2024-01-16T05:18:02;7.05;;;3.17;;
76039;SDS011;64736;50.462;4.850;2024-01-16T05:20:28;7.85;;;3.38;;
76039;SDS011;64736;50.462;4.850;2024-01-16T05:22:54;5.50;;;2.90;;
76039;SDS011;64736;50.462;4.850;2024-01-16T05:25:20;7.65;;;2.60;;
76039;SDS011;64736;50.462;4.850;2024-01-16T05:27:46;5.05;;;2.33;;
76039;SDS011;64736;50.462;4.850;2024-01-16T05:30:12;5.55;;;2.53;;
76039;SDS011;64736;50.462;4.850;2024-01-16T05:32:38;7.40;;;3.20;;
76039;SDS011;64736;50.462;4.850;2024-01-16T05:35:04;5.85;;;3.20;;
76039;SDS011;64736;50.462;4.850;2024-01-16T05:37:30;5.25;;;2.63;;
76039;SDS011;64736;50.462;4.850;2024-01-16T05:39:56;5.03;;;2.70;;
76039;SDS011;64736;50.462;4.850;2024-01-16T05:42:22;7.53;;;2.83;;
76039;SDS011;64736;50.462;4.850;2024-01-16T05:44:48;7.47;;;2.83;;
76039;SDS011;64736;50.462;4.850;2024-01-16T05:47:14;7.78;;;3.45;;
76039;SDS011;64736;50.462;4.850;2024-01-16T05:49:39;7.78;;;3.33;;
76039;SDS011;64736;50.462;4.850;2024-01-16T05:52:07;6.90;;;2.90;;
76039;SDS011;64736;50.462;4.850;2024-01-16T05:54:32;8.15;;;3.05;;
76039;SDS011;64736;50.462;4.850;2024-01-16T05:56:58;6.68;;;3.30;;
76039;SDS011;64736;50.462;4.850;2024-01-16T05:59:24;8.73;;;2.92;;
76039;SDS011;64736;50.462;4.850;2024-01-16T06:01:49;6.80;;;3.13;;
76039;SDS011;64736;50.462;4.850;2024-01-16T06:04:15;6.88;;;3.65;;
76039;SDS011;64736;50.462;4.850;2024-01-16T06:06:41;7.63;;;3.83;;
76039;SDS011;64736;50.462;4.850;2024-01-16T06:09:11;6.70;;;3.38;;
76039;SDS011;64736;50.462;4.850;2024-01-16T06:11:39;7.03;;;3.72;;
76039;SDS011;64736;50.462;4.850;2024-01-16T06:14:08;6.93;;;3.83;;
76039;SDS011;64736;50.462;4.850;2024-01-16T06:16:35;6.78;;;3.05;;
76039;SDS011;64736;50.462;4.850;2024-01-16T06:19:01;5.90;;;3.33;;
76039;SDS011;64736;50.462;4.850;2024-01-16T06:21:27;7.30;;;3.20;;
76039;SDS011;64736;50.462;4.850;2024-01-16T06:23:52;8.75;;;4.63;;
76039;SDS011;64736;50.462;4.850;2024-01-16T06:26:18;5.85;;;3.20;;
76039;SDS011;64736;50.462;4.850;2024-01-16T06:28:44;8.10;;;3.38;;
76039;SDS011;64736;50.462;4.850;2024-01-16T06:31:10;8.98;;;3.40;;
76039;SDS011;64736;50.462;4.850;2024-01-16T06:33:36;5.72;;;3.40;;
76039;SDS011;64736;50.462;4.850;2024-01-16T06:36:02;8.30;;;3.53;;
76039;SDS011;64736;50.462;4.850;2024-01-16T06:38:29;6.47;;;3.63;;
76039;SDS011;64736;50.462;4.850;2024-01-16T06:40:56;6.20;;;3.42;;
76039;SDS011;64736;50.462;4.850;2024-01-16T06:43:24;9.05;;;3.53;;
76039;SDS011;64736;50.462;4.850;2024-01-16T06:45:50;9.77;;;3.55;;
76039;SDS011;64736;50.462;4.850;2024-01-16T06:48:16;6.75;;;2.90;;
76039;SDS011;64736;50.462;4.850;2024-01-16T06:50:41;7.18;;;3.97;;
76039;SDS011;64736;50.462;4.850;2024-01-16T06:53:07;8.25;;;2.78;;
76039;SDS011;64736;50.462;4.850;2024-01-16T06:55:33;8.32;;;3.28;;
76039;SDS011;64736;50.462;4.850;2024-01-16T06:57:58;7.07;;;3.70;;
76039;SDS011;64736;50.462;4.850;2024-01-16T07:00:24;15.68;;;7.70;;
76039;SDS011;64736;50.462;4.850;2024-01-16T07:02:55;9.32;;;3.67;;
76039;SDS011;64736;50.462;4.850;2024-01-16T07:05:20;7.57;;;3.90;;
76039;SDS011;64736;50.462;4.850;2024-01-16T07:07:46;11.02;;;6.35;;
76039;SDS011;64736;50.462;4.850;2024-01-16T07:10:12;7.28;;;4.05;;
76039;SDS011;64736;50.462;4.850;2024-01-16T07:12:46;7.15;;;3.22;;
76039;SDS011;64736;50.462;4.850;2024-01-16T07:15:12;8.65;;;3.88;;
76039;SDS011;64736;50.462;4.850;2024-01-16T07:17:39;7.80;;;3.88;;
76039;SDS011;64736;50.462;4.850;2024-01-16T07:20:05;6.32;;;3.53;;
76039;SDS011;64736;50.462;4.850;2024-01-16T07:22:31;11.95;;;5.00;;
76039;SDS011;64736;50.462;4.850;2024-01-16T07:24:57;5.57;;;3.35;;
76039;SDS011;64736;50.462;4.850;2024-01-16T07:27:22;7.53;;;4.07;;
76039;SDS011;64736;50.462;4.850;2024-01-16T07:29:48;8.18;;;4.63;;
76039;SDS011;64736;50.462;4.850;2024-01-16T07:32:14;6.63;;;3.50;;
76039;SDS011;64736;50.462;4.850;2024-01-16T07:34:39;8.23;;;3.38;;
76039;SDS011;64736;50.462;4.850;2024-01-16T07:37:05;10.25;;;4.97;;
76039;SDS011;64736;50.462;4.850;2024-01-16T07:39:31;10.98;;;3.85;;
76039;SDS011;64736;50.462;4.850;2024-01-16T07:41:56;8.20;;;4.10;;
76039;SDS011;64736;50.462;4.850;2024-01-16T07:44:22;7.53;;;4.93;;
76039;SDS011;64736;50.462;4.850;2024-01-16T07:46:48;7.93;;;3.53;;
76039;SDS011;64736;50.462;4.850;2024-01-16T07:49:15;9.13;;;4.68;;
76039;SDS011;64736;50.462;4.850;2024-01-16T07:51:41;6.65;;;4.00;;
76039;SDS011;64736;50.462;4.850;2024-01-16T07:54:08;6.10;;;3.45;;
76039;SDS011;64736;50.462;4.850;2024-01-16T07:56:35;6.85;;;4.10;;
76039;SDS011;64736;50.462;4.850;2024-01-16T07:59:01;7.50;;;3.50;;
76039;SDS011;64736;50.462;4.850;2024-01-16T08:01:28;9.05;;;4.30;;
76039;SDS011;64736;50.462;4.850;2024-01-16T08:03:56;8.70;;;3.88;;
76039;SDS011;64736;50.462;4.850;2024-01-16T08:06:22;7.07;;;4.20;;
76039;SDS011;64736;50.462;4.850;2024-01-16T08:08:49;7.45;;;4.05;;
76039;SDS011;64736;50.462;4.850;2024-01-16T08:11:15;8.65;;;3.58;;
76039;SDS011;64736;50.462;4.850;2024-01-16T08:13:41;7.68;;;3.63;;
76039;SDS011;64736;50.462;4.850;2024-01-16T08:16:07;8.82;;;3.97;;
76039;SDS011;64736;50.462;4.850;2024-01-16T08:18:33;6.78;;;3.83;;
76039;SDS011;64736;50.462;4.850;2024-01-16T08:20:59;7.55;;;3.80;;
76039;SDS011;64736;50.462;4.850;2024-01-16T08:23:25;7.10;;;3.72;;
76039;SDS011;64736;50.462;4.850;2024-01-16T08:25:51;7.43;;;4.43;;
76039;SDS011;64736;50.462;4.850;2024-01-16T08:28:20;8.27;;;4.00;;
76039;SDS011;64736;50.462;4.850;2024-01-16T08:30:46;6.65;;;4.03;;
76039;SDS011;64736;50.462;4.850;2024-01-16T08:33:11;7.25;;;3.65;;
76039;SDS011;64736;50.462;4.850;2024-01-16T08:35:38;7.95;;;4.47;;
76039;SDS011;64736;50.462;4.850;2024-01-16T08:38:04;7.47;;;4.22;;
76039;SDS011;64736;50.462;4.850;2024-01-16T08:40:29;7.72;;;4.05;;
76039;SDS011;64736;50.462;4.850;2024-01-16T08:42:55;9.20;;;4.68;;
76039;SDS011;64736;50.462;4.850;2024-01-16T08:45:22;7.43;;;3.95;;
76039;SDS011;64736;50.462;4.850;2024-01-16T08:47:47;10.00;;;4.57;;
76039;SDS011;64736;50.462;4.850;2024-01-16T08:50:13;6.43;;;3.53;;
76039;SDS011;64736;50.462;4.850;2024-01-16T08:52:39;7.63;;;3.70;;
76039;SDS011;64736;50.462;4.850;2024-01-16T08:55:06;7.93;;;3.90;;
76039;SDS011;64736;50.462;4.850;2024-01-16T08:57:31;8.65;;;3.83;;
76039;SDS011;64736;50.462;4.850;2024-01-16T08:59:57;7.50;;;4.40;;
76039;SDS011;64736;50.462;4.850;2024-01-16T09:02:23;7.25;;;3.55;;
76039;SDS011;64736;50.462;4.850;2024-01-16T09:04:49;9.30;;;4.28;;
76039;SDS011;64736;50.462;4.850;2024-01-16T09:07:16;10.05;;;4.90;;
76039;SDS011;64736;50.462;4.850;2024-01-16T09:09:42;8.02;;;3.92;;
76039;SDS011;64736;50.462;4.850;2024-01-16T09:12:08;11.27;;;4.53;;
76039;SDS011;64736;50.462;4.850;2024-01-16T09:14:34;9.48;;;5.43;;
76039;SDS011;64736;50.462;4.850;2024-01-16T09:17:00;7.90;;;4.43;;
76039;SDS011;64736;50.462;4.850;2024-01-16T09:19:26;8.82;;;4.95;;
76039;SDS011;64736;50.462;4.850;2024-01-16T09:21:51;10.15;;;5.18;;
76039;SDS011;64736;50.462;4.850;2024-01-16T09:24:17;11.48;;;6.05;;
76039;SDS011;64736;50.462;4.850;2024-01-16T09:26:44;8.35;;;4.72;;
76039;SDS011;64736;50.462;4.850;2024-01-16T09:29:09;6.90;;;4.22;;
76039;SDS011;64736;50.462;4.850;2024-01-16T09:31:35;9.57;;;4.90;;
76039;SDS011;64736;50.462;4.850;2024-01-16T09:34:02;7.97;;;4.97;;
76039;SDS011;64736;50.462;4.850;2024-01-16T09:36:29;13.00;;;5.20;;
76039;SDS011;64736;50.462;4.850;2024-01-16T09:38:54;8.40;;;4.38;;
76039;SDS011;64736;50.462;4.850;2024-01-16T09:41:20;8.68;;;4.50;;
76039;SDS011;64736;50.462;4.850;2024-01-16T09:43:46;8.75;;;4.13;;
76039;SDS011;64736;50.462;4.850;2024-01-16T09:46:12;9.15;;;4.18;;
76039;SDS011;64736;50.462;4.850;2024-01-16T09:48:41;7.85;;;4.45;;
76039;SDS011;64736;50.462;4.850;2024-01-16T09:51:12;7.90;;;4.10;;
76039;SDS011;64736;50.462;4.850;2024-01-16T09:53:41;7.90;;;4.38;;
76039;SDS011;64736;50.462;4.850;2024-01-16T09:56:09;8.55;;;4.65;;
76039;SDS011;64736;50.462;4.850;2024-01-16T09:58:40;9.77;;;4.47;;
76039;SDS011;64736;50.462;4.850;2024-01-16T10:01:08;7.38;;;3.97;;
76039;SDS011;64736;50.462;4.850;2024-01-16T10:03:34;6.32;;;3.97;;
76039;SDS011;64736;50.462;4.850;2024-01-16T10:06:04;9.15;;;4.70;;
76039;SDS011;64736;50.462;4.850;2024-01-16T10:08:31;9.80;;;4.82;;
76039;SDS011;64736;50.462;4.850;2024-01-16T10:10:57;9.82;;;4.53;;
76039;SDS011;64736;50.462;4.850;2024-01-16T10:13:24;8.57;;;4.43;;
76039;SDS011;64736;50.462;4.850;2024-01-16T10:15:50;7.82;;;4.03;;
76039;SDS011;64736;50.462;4.850;2024-01-16T10:18:24;7.03;;;3.90;;
76039;SDS011;64736;50.462;4.850;2024-01-16T10:20:51;8.57;;;4.07;;
76039;SDS011;64736;50.462;4.850;2024-01-16T10:23:24;7.72;;;4.35;;
76039;SDS011;64736;50.462;4.850;2024-01-16T10:28:39;7.15;;;3.28;;
76039;SDS011;64736;50.462;4.850;2024-01-16T10:31:10;6.47;;;3.88;;
76039;SDS011;64736;50.462;4.850;2024-01-16T10:33:37;10.77;;;3.80;;
76039;SDS011;64736;50.462;4.850;2024-01-16T10:36:12;8.68;;;3.67;;
76039;SDS011;64736;50.462;4.850;2024-01-16T10:38:42;6.22;;;3.60;;
76039;SDS011;64736;50.462;4.850;2024-01-16T10:41:13;7.78;;;3.97;;
76039;SDS011;64736;50.462;4.850;2024-01-16T10:43:42;7.03;;;3.67;;
76039;SDS011;64736;50.462;4.850;2024-01-16T10:46:10;6.38;;;3.75;;
76039;SDS011;64736;50.462;4.850;2024-01-16T10:48:38;7.97;;;3.60;;
76039;SDS011;64736;50.462;4.850;2024-01-16T10:51:09;5.70;;;3.10;;
76039;SDS011;64736;50.462;4.850;2024-01-16T10:53:41;9.10;;;3.03;;
76039;SDS011;64736;50.462;4.850;2024-01-16T10:58:41;7.00;;;2.97;;
76039;SDS011;64736;50.462;4.850;2024-01-16T11:01:11;8.43;;;3.90;;
76039;SDS011;64736;50.462;4.850;2024-01-16T11:03:47;6.22;;;2.90;;
76039;SDS011;64736;50.462;4.850;2024-01-16T11:06:14;10.20;;;3.60;;
76039;SDS011;64736;50.462;4.850;2024-01-16T11:08:46;7.55;;;3.00;;
76039;SDS011;64736;50.462;4.850;2024-01-16T11:11:13;10.15;;;3.58;;
76039;SDS011;64736;50.462;4.850;2024-01-16T11:13:39;7.38;;;3.30;;
76039;SDS011;64736;50.462;4.850;2024-01-16T11:16:06;6.63;;;3.40;;
76039;SDS011;64736;50.462;4.850;2024-01-16T11:18:36;7.55;;;3.10;;
76039;SDS011;64736;50.462;4.850;2024-01-16T11:21:04;8.80;;;3.78;;
76039;SDS011;64736;50.462;4.850;2024-01-16T11:25:57;6.43;;;3.08;;
76039;SDS011;64736;50.462;4.850;2024-01-16T11:28:27;7.95;;;2.90;;
76039;SDS011;64736;50.462;4.850;2024-01-16T11:30:57;7.30;;;3.40;;
76039;SDS011;64736;50.462;4.850;2024-01-16T11:35:57;7.95;;;3.10;;
76039;SDS011;64736;50.462;4.850;2024-01-16T11:38:24;6.53;;;2.78;;
76039;SDS011;64736;50.462;4.850;2024-01-16T11:40:52;8.82;;;2.65;;
76039;SDS011;64736;50.462;4.850;2024-01-16T11:43:34;7.07;;;2.75;;
76039;SDS011;64736;50.462;4.850;2024-01-16T11:46:01;6.57;;;2.75;;
76039;SDS011;64736;50.462;4.850;2024-01-16T11:48:29;9.65;;;3.90;;
76039;SDS011;64736;50.462;4.850;2024-01-16T11:50:55;9.15;;;3.50;;
76039;SDS011;64736;50.462;4.850;2024-01-16T12:01:54;6.40;;;2.80;;
76039;SDS011;64736;50.462;4.850;2024-01-16T12:04:24;9.85;;;3.17;;
76039;SDS011;64736;50.462;4.850;2024-01-16T12:06:56;6.18;;;2.58;;
76039;SDS011;64736;50.462;4.850;2024-01-16T12:09:25;5.90;;;2.60;;
76039;SDS011;64736;50.462;4.850;2024-01-16T12:12:10;6.33;;;2.77;;
76039;SDS011;64736;50.462;4.850;2024-01-16T12:14:41;5.72;;;2.53;;
76039;SDS011;64736;50.462;4.850;2024-01-16T12:17:18;6.90;;;3.22;;
76039;SDS011;64736;50.462;4.850;2024-01-16T12:19:45;4.88;;;2.20;;
76039;SDS011;64736;50.462;4.850;2024-01-16T12:22:15;5.68;;;2.83;;
76039;SDS011;64736;50.462;4.850;2024-01-16T12:24:43;5.47;;;2.80;;
76039;SDS011;64736;50.462;4.850;2024-01-16T12:27:10;8.85;;;2.97;;
76039;SDS011;64736;50.462;4.850;2024-01-16T12:29:36;6.63;;;2.47;;
76039;SDS011;64736;50.462;4.850;2024-01-16T12:32:06;5.07;;;2.28;;
76039;SDS011;64736;50.462;4.850;2024-01-16T12:34:32;6.40;;;2.85;;
76039;SDS011;64736;50.462;4.850;2024-01-16T12:37:06;5.53;;;2.50;;
76039;SDS011;64736;50.462;4.850;2024-01-16T12:39:32;7.97;;;3.03;;
76039;SDS011;64736;50.462;4.850;2024-01-16T12:42:00;6.35;;;3.05;;
76039;SDS011;64736;50.462;4.850;2024-01-16T12:44:29;5.95;;;2.53;;
76039;SDS011;64736;50.462;4.850;2024-01-16T12:46:56;6.45;;;2.42;;
76039;SDS011;64736;50.462;4.850;2024-01-16T12:49:25;8.02;;;3.45;;
76039;SDS011;64736;50.462;4.850;2024-01-16T12:51:51;6.25;;;3.40;;
76039;SDS011;64736;50.462;4.850;2024-01-16T12:54:17;8.90;;;4.03;;
76039;SDS011;64736;50.462;4.850;2024-01-16T12:56:47;8.65;;;3.45;;
76039;SDS011;64736;50.462;4.850;2024-01-16T12:59:13;7.00;;;3.42;;
76039;SDS011;64736;50.462;4.850;2024-01-16T13:01:43;7.55;;;3.47;;
76039;SDS011;64736;50.462;4.850;2024-01-16T13:04:11;5.78;;;2.67;;
76039;SDS011;64736;50.462;4.850;2024-01-16T13:06:38;5.65;;;2.20;;
76039;SDS011;64736;50.462;4.850;2024-01-16T13:09:09;10.75;;;3.45;;
76039;SDS011;64736;50.462;4.850;2024-01-16T13:14:17;6.93;;;3.72;;
76039;SDS011;64736;50.462;4.850;2024-01-16T13:16:46;6.13;;;3.20;;
76039;SDS011;64736;50.462;4.850;2024-01-16T13:19:16;7.15;;;2.85;;
76039;SDS011;64736;50.462;4.850;2024-01-16T13:21:45;7.35;;;3.90;;
76039;SDS011;64736;50.462;4.850;2024-01-16T13:24:11;7.95;;;3.13;;
76039;SDS011;64736;50.462;4.850;2024-01-16T13:26:38;7.25;;;3.20;;
76039;SDS011;64736;50.462;4.850;2024-01-16T13:29:05;7.93;;;3.70;;
76039;SDS011;64736;50.462;4.850;2024-01-16T13:31:31;6.35;;;2.70;;
76039;SDS011;64736;50.462;4.850;2024-01-16T13:33:57;7.38;;;3.20;;
76039;SDS011;64736;50.462;4.850;2024-01-16T13:36:23;6.97;;;3.28;;
76039;SDS011;64736;50.462;4.850;2024-01-16T13:38:50;7.03;;;3.15;;
76039;SDS011;64736;50.462;4.850;2024-01-16T13:41:15;6.03;;;3.53;;
76039;SDS011;64736;50.462;4.850;2024-01-16T13:43:41;6.72;;;3.03;;
76039;SDS011;64736;50.462;4.850;2024-01-16T13:46:07;6.85;;;3.45;;
76039;SDS011;64736;50.462;4.850;2024-01-16T13:48:35;11.33;;;6.60;;
76039;SDS011;64736;50.462;4.850;2024-01-16T13:51:01;18.80;;;10.95;;
76039;SDS011;64736;50.462;4.850;2024-01-16T13:53:29;15.35;;;10.82;;
76039;SDS011;64736;50.462;4.850;2024-01-16T13:55:55;14.10;;;11.93;;
76039;SDS011;64736;50.462;4.850;2024-01-16T13:58:21;8.25;;;4.80;;
76039;SDS011;64736;50.462;4.850;2024-01-16T14:00:46;7.15;;;3.70;;
76039;SDS011;64736;50.462;4.850;2024-01-16T14:03:12;9.23;;;4.53;;
76039;SDS011;64736;50.462;4.850;2024-01-16T14:05:38;6.35;;;3.35;;
76039;SDS011;64736;50.462;4.850;2024-01-16T14:08:07;8.00;;;3.60;;
76039;SDS011;64736;50.462;4.850;2024-01-16T14:10:33;7.30;;;3.63;;
76039;SDS011;64736;50.462;4.850;2024-01-16T14:12:59;5.93;;;3.10;;
76039;SDS011;64736;50.462;4.850;2024-01-16T14:15:25;6.43;;;3.03;;
76039;SDS011;64736;50.462;4.850;2024-01-16T14:17:51;6.05;;;3.45;;
76039;SDS011;64736;50.462;4.850;2024-01-16T14:20:19;5.72;;;3.47;;
76039;SDS011;64736;50.462;4.850;2024-01-16T14:22:50;7.68;;;3.60;;
76039;SDS011;64736;50.462;4.850;2024-01-16T14:25:17;6.85;;;3.67;;
76039;SDS011;64736;50.462;4.850;2024-01-16T14:27:44;6.43;;;4.55;;
76039;SDS011;64736;50.462;4.850;2024-01-16T14:30:24;7.53;;;3.38;;
76039;SDS011;64736;50.462;4.850;2024-01-16T14:32:51;6.78;;;3.83;;
76039;SDS011;64736;50.462;4.850;2024-01-16T14:35:17;6.53;;;3.53;;
76039;SDS011;64736;50.462;4.850;2024-01-16T14:37:43;6.80;;;3.40;;
76039;SDS011;64736;50.462;4.850;2024-01-16T14:40:09;6.18;;;3.63;;
76039;SDS011;64736;50.462;4.850;2024-01-16T14:42:41;5.55;;;3.30;;
76039;SDS011;64736;50.462;4.850;2024-01-16T14:45:14;8.05;;;3.55;;
76039;SDS011;64736;50.462;4.850;2024-01-16T14:47:40;9.40;;;3.80;;
76039;SDS011;64736;50.462;4.850;2024-01-16T14:50:07;5.60;;;3.38;;
76039;SDS011;64736;50.462;4.850;2024-01-16T14:52:33;6.80;;;3.17;;
76039;SDS011;64736;50.462;4.850;2024-01-16T14:54:59;8.07;;;4.68;;
76039;SDS011;64736;50.462;4.850;2024-01-16T14:57:26;6.80;;;3.58;;
76039;SDS011;64736;50.462;4.850;2024-01-16T14:59:53;6.95;;;3.28;;
76039;SDS011;64736;50.462;4.850;2024-01-16T15:02:18;5.85;;;3.15;;
76039;SDS011;64736;50.462;4.850;2024-01-16T15:04:46;7.20;;;3.83;;
76039;SDS011;64736;50.462;4.850;2024-01-16T15:07:13;10.15;;;3.65;;